Time,TemperatureF,DewpointF,PressureIn,WindDirection,WindDirectionDegrees,WindSpeedMPH,WindSpeedGustMPH,Humidity,HourlyPrecipIn,Conditions,Clouds,dailyrainin,SolarRadiationWatts/m^2,SoftwareType,DateUTC
2013-06-11 00:22:00,54.0,43.0,-100.00,NE,47,1.0,3.0,67,0.00,,,0.00,4.000000,,2013-06-11 08:22:00,
2013-06-11 00:32:00,54.0,43.0,-100.00,NE,47,1.0,3.0,67,0.00,,,0.00,4.000000,,2013-06-11 08:32:00,
2013-06-11 00:42:00,54.0,43.0,-100.00,NE,47,1.0,3.0,67,0.00,,,0.00,4.000000,,2013-06-11 08:42:00,
2013-06-11 00:52:00,54.0,43.0,-100.00,NE,47,1.0,3.0,67,0.00,,,0.00,4.000000,,2013-06-11 08:52:00,
2013-06-11 02:22:00,50.0,42.0,-100.00,East,99,2.0,4.0,73,-99.99,,,0.00,0.000000,,2013-06-11 10:22:00,
2013-06-11 03:22:00,47.0,40.0,-100.00,ENE,72,2.0,3.0,77,-99.99,,,-99.99,0.000000,,2013-06-11 11:22:00,
2013-06-11 03:41:00,47.0,40.0,-100.00,ENE,72,2.0,3.0,77,-99.99,,,-99.99,0.000000,,2013-06-11 11:41:00,
2013-06-11 03:52:00,47.0,40.0,-100.00,ENE,72,2.0,3.0,77,-99.99,,,-99.99,0.000000,,2013-06-11 11:52:00,
2013-06-11 04:12:00,44.0,39.0,-100.00,East,101,0.0,2.0,82,-99.99,,,-99.99,,,2013-06-11 12:12:00,
2013-06-11 05:22:00,43.0,38.0,-100.00,East,95,0.0,0.0,84,-99.99,,,-99.99,3.000000,,2013-06-11 13:22:00,
2013-06-11 06:22:00,42.0,38.0,-100.00,East,88,0.0,0.0,86,-99.99,,,0.00,14.000000,,2013-06-11 14:22:00,
2013-06-11 07:12:00,44.0,40.0,-100.00,East,89,1.0,2.0,87,-99.99,,,-99.99,,,2013-06-11 15:12:00,
2013-06-11 07:22:00,44.0,40.0,-100.00,East,89,1.0,2.0,87,-99.99,,,0.00,47.000000,,2013-06-11 15:22:00,
2013-06-11 07:33:00,44.0,40.0,-100.00,East,89,1.0,2.0,87,-99.99,,,0.00,47.000000,,2013-06-11 15:33:00,
2013-06-11 08:22:00,50.0,45.0,-100.00,NW,311,0.0,2.0,84,-99.99,,,0.00,95.000000,,2013-06-11 16:22:00,
2013-06-11 08:32:00,50.0,45.0,-100.00,NW,311,0.0,2.0,84,-99.99,,,0.00,95.000000,,2013-06-11 16:32:00,
2013-06-11 08:42:00,50.0,45.0,-100.00,NW,311,0.0,2.0,84,-99.99,,,0.00,95.000000,,2013-06-11 16:42:00,
2013-06-11 08:52:00,50.0,45.0,-100.00,NW,311,0.0,2.0,84,-99.99,,,0.00,95.000000,,2013-06-11 16:52:00,
2013-06-11 09:22:00,60.0,50.0,-100.00,WSW,242,3.0,5.0,69,0.00,,,0.00,212.000000,,2013-06-11 17:22:00,
2013-06-11 09:32:00,60.0,50.0,-100.00,WSW,242,3.0,5.0,69,0.00,,,0.00,212.000000,,2013-06-11 17:32:00,
2013-06-11 09:43:00,60.0,50.0,-100.00,WSW,242,3.0,5.0,69,0.00,,,0.00,212.000000,,2013-06-11 17:43:00,
2013-06-11 09:52:00,60.0,50.0,-100.00,WSW,242,3.0,5.0,69,0.00,,,0.00,212.000000,,2013-06-11 17:52:00,
2013-06-11 10:22:00,63.0,46.0,-100.00,WSW,258,3.0,7.0,53,0.00,,,0.00,425.000000,,2013-06-11 18:22:00,
2013-06-11 10:32:00,63.0,46.0,-100.00,WSW,258,3.0,7.0,53,0.00,,,0.00,425.000000,,2013-06-11 18:32:00,
2013-06-11 10:42:00,63.0,46.0,-100.00,WSW,258,3.0,7.0,53,0.00,,,0.00,425.000000,,2013-06-11 18:42:00,
2013-06-11 10:52:00,63.0,46.0,-100.00,WSW,258,3.0,7.0,53,0.00,,,0.00,425.000000,,2013-06-11 18:52:00,
2013-06-11 11:22:00,67.0,46.0,-100.00,SW,235,3.0,7.0,47,0.00,,,0.00,528.000000,,2013-06-11 19:22:00,
2013-06-11 11:32:00,67.0,46.0,-100.00,SW,235,3.0,7.0,47,0.00,,,0.00,528.000000,,2013-06-11 19:32:00,
2013-06-11 11:42:00,67.0,46.0,-100.00,SW,235,3.0,7.0,47,0.00,,,0.00,528.000000,,2013-06-11 19:42:00,
2013-06-11 11:52:00,67.0,46.0,-100.00,SW,235,3.0,7.0,47,0.00,,,0.00,528.000000,,2013-06-11 19:52:00,
2013-06-11 12:22:00,69.0,46.0,-100.00,WNW,293,4.0,9.0,44,0.00,,,0.00,619.000000,,2013-06-11 20:22:00,
2013-06-11 12:32:00,69.0,46.0,-100.00,WNW,293,4.0,9.0,44,0.00,,,0.00,619.000000,,2013-06-11 20:32:00,
2013-06-11 12:42:00,69.0,46.0,-100.00,WNW,293,4.0,9.0,44,0.00,,,0.00,619.000000,,2013-06-11 20:42:00,
2013-06-11 12:52:00,69.0,46.0,-100.00,WNW,293,4.0,9.0,44,0.00,,,0.00,619.000000,,2013-06-11 20:52:00,
2013-06-11 13:22:00,70.0,48.0,-100.00,SSW,203,4.0,9.0,46,0.00,,,0.00,683.000000,,2013-06-11 21:22:00,
2013-06-11 13:33:00,70.0,48.0,-100.00,SSW,203,4.0,9.0,46,0.00,,,0.00,683.000000,,2013-06-11 21:33:00,
2013-06-11 13:42:00,70.0,48.0,-100.00,SSW,203,4.0,9.0,46,0.00,,,0.00,683.000000,,2013-06-11 21:42:00,
2013-06-11 13:52:00,70.0,48.0,-100.00,SSW,203,4.0,9.0,46,0.00,,,0.00,683.000000,,2013-06-11 21:52:00,
2013-06-11 14:22:00,73.0,44.0,-100.00,WNW,283,5.0,10.0,35,0.00,,,0.00,720.000000,,2013-06-11 22:22:00,
2013-06-11 14:32:00,73.0,44.0,-100.00,WNW,283,5.0,10.0,35,0.00,,,0.00,720.000000,,2013-06-11 22:32:00,
2013-06-11 14:42:00,73.0,44.0,-100.00,WNW,283,5.0,10.0,35,0.00,,,0.00,720.000000,,2013-06-11 22:42:00,
2013-06-11 14:52:00,73.0,44.0,-100.00,WNW,283,5.0,10.0,35,0.00,,,0.00,720.000000,,2013-06-11 22:52:00,
2013-06-11 15:12:00,75.0,44.0,-100.00,WNW,290,4.0,11.0,33,-99.99,,,-99.99,,,2013-06-11 23:12:00,
2013-06-11 15:22:00,75.0,44.0,-100.00,WNW,290,5.0,12.0,33,0.00,,,0.00,733.000000,,2013-06-11 23:22:00,
2013-06-11 15:32:00,75.0,44.0,-100.00,WNW,290,5.0,12.0,33,0.00,,,0.00,733.000000,,2013-06-11 23:32:00,
2013-06-11 15:42:00,75.0,44.0,-100.00,WNW,290,5.0,12.0,33,0.00,,,0.00,733.000000,,2013-06-11 23:42:00,
2013-06-11 15:52:00,75.0,44.0,-100.00,WNW,290,5.0,12.0,33,0.00,,,0.00,733.000000,,2013-06-11 23:52:00,
2013-06-11 16:12:00,74.0,41.0,-100.00,WSW,249,3.0,11.0,30,-99.99,,,-99.99,,,2013-06-12 00:12:00,
2013-06-11 16:22:00,74.0,41.0,-100.00,WSW,249,4.0,12.0,30,0.00,,,0.00,607.000000,,2013-06-12 00:22:00,
2013-06-11 16:32:00,74.0,41.0,-100.00,WSW,249,4.0,12.0,30,0.00,,,0.00,607.000000,,2013-06-12 00:32:00,
2013-06-11 16:42:00,74.0,41.0,-100.00,WSW,249,4.0,12.0,30,0.00,,,0.00,607.000000,,2013-06-12 00:42:00,
2013-06-11 16:52:00,74.0,41.0,-100.00,WSW,249,4.0,12.0,30,0.00,,,0.00,607.000000,,2013-06-12 00:52:00,
2013-06-11 17:22:00,77.0,40.0,-100.00,WNW,284,5.0,11.0,27,0.00,,,0.00,653.000000,,2013-06-12 01:22:00,
2013-06-11 17:32:00,77.0,40.0,-100.00,WNW,284,5.0,11.0,27,0.00,,,0.00,653.000000,,2013-06-12 01:32:00,
2013-06-11 17:42:00,77.0,40.0,-100.00,WNW,284,5.0,11.0,27,0.00,,,0.00,653.000000,,2013-06-12 01:42:00,
2013-06-11 17:52:00,77.0,40.0,-100.00,WNW,284,5.0,11.0,27,0.00,,,0.00,653.000000,,2013-06-12 01:52:00,
2013-06-11 18:22:00,76.0,41.0,-100.00,WSW,247,5.0,12.0,29,0.00,,,0.00,570.000000,,2013-06-12 02:22:00,
2013-06-11 18:32:00,76.0,41.0,-100.00,WSW,247,5.0,12.0,29,0.00,,,0.00,570.000000,,2013-06-12 02:32:00,
2013-06-11 18:42:00,76.0,41.0,-100.00,WSW,247,5.0,12.0,29,0.00,,,0.00,570.000000,,2013-06-12 02:42:00,
2013-06-11 18:52:00,76.0,41.0,-100.00,WSW,247,5.0,12.0,29,0.00,,,0.00,570.000000,,2013-06-12 02:52:00,
2013-06-11 19:22:00,76.0,46.0,-100.00,SSW,192,4.0,9.0,34,0.00,,,0.00,466.000000,,2013-06-12 03:22:00,
2013-06-11 19:32:00,76.0,46.0,-100.00,SSW,192,4.0,9.0,34,0.00,,,0.00,466.000000,,2013-06-12 03:32:00,
2013-06-11 19:42:00,76.0,46.0,-100.00,SSW,192,4.0,9.0,34,0.00,,,0.00,466.000000,,2013-06-12 03:42:00,
2013-06-11 19:53:00,76.0,46.0,-100.00,SSW,192,4.0,9.0,34,0.00,,,0.00,466.000000,,2013-06-12 03:53:00,
2013-06-11 20:23:00,73.0,43.0,-100.00,SSW,194,3.0,8.0,34,0.00,,,0.00,356.000000,,2013-06-12 04:23:00,
2013-06-11 20:33:00,73.0,43.0,-100.00,SSW,194,3.0,8.0,34,0.00,,,0.00,356.000000,,2013-06-12 04:33:00,
2013-06-11 20:42:00,73.0,43.0,-100.00,SSW,194,3.0,8.0,34,0.00,,,0.00,356.000000,,2013-06-12 04:42:00,
2013-06-11 20:52:00,73.0,43.0,-100.00,SSW,194,3.0,8.0,34,0.00,,,0.00,356.000000,,2013-06-12 04:52:00,
2013-06-11 21:22:00,70.0,41.0,-100.00,South,187,3.0,8.0,35,0.00,,,0.00,250.000000,,2013-06-12 05:22:00,
2013-06-11 21:32:00,70.0,41.0,-100.00,South,187,3.0,8.0,35,0.00,,,0.00,250.000000,,2013-06-12 05:32:00,
2013-06-11 21:42:00,70.0,41.0,-100.00,South,187,3.0,8.0,35,0.00,,,0.00,250.000000,,2013-06-12 05:42:00,
2013-06-11 21:52:00,70.0,41.0,-100.00,South,187,3.0,8.0,35,0.00,,,0.00,250.000000,,2013-06-12 05:52:00,
2013-06-11 22:22:00,67.0,41.0,-100.00,SW,226,2.0,7.0,38,0.00,,,0.00,143.000000,,2013-06-12 06:22:00,
2013-06-11 22:32:00,67.0,41.0,-100.00,SW,226,2.0,7.0,38,0.00,,,0.00,143.000000,,2013-06-12 06:32:00,
2013-06-11 22:42:00,67.0,41.0,-100.00,SW,226,2.0,7.0,38,0.00,,,0.00,143.000000,,2013-06-12 06:42:00,
2013-06-11 22:52:00,67.0,41.0,-100.00,SW,226,2.0,7.0,38,0.00,,,0.00,143.000000,,2013-06-12 06:52:00,
2013-06-11 23:22:00,59.0,41.0,-100.00,East,81,1.0,4.0,51,0.00,,,0.00,25.000000,,2013-06-12 07:22:00,
2013-06-11 23:33:00,59.0,41.0,-100.00,East,81,1.0,4.0,51,0.00,,,0.00,25.000000,,2013-06-12 07:33:00,
2013-06-11 23:43:00,59.0,41.0,-100.00,East,81,1.0,4.0,51,0.00,,,0.00,25.000000,,2013-06-12 07:43:00,
2013-06-11 23:53:00,59.0,41.0,-100.00,East,81,1.0,4.0,51,0.00,,,0.00,25.000000,,2013-06-12 07:53:00,